Time;durP1;ratioP1;P1;durP2;ratioP2;P2;SDS_P1;SDS_P2;PMS_P1;PMS_P2;Temp;Humidity;BMP_temperature;BMP_pressure;BME280_temperature;BME280_humidity;BME280_pressure;Samples;Min_cycle;Max_cycle;Signal;HPM_P1;HPM_P2
2021/06/20 00:00:15;;;;;;;4.63;1.20;;;;;;;15.31;100.00;93036.38;5071852;28;20044;-82
2021/06/20 00:02:42;;;;;;;3.83;1.45;;;;;;;15.31;100.00;93036.38;5071401;28;20056;-82
2021/06/20 00:05:12;;;;;;;1.80;1.00;;;;;;;15.17;100.00;93030.78;5071664;28;20044;-82
2021/06/20 00:07:40;;;;;;;2.25;0.88;;;;;;;15.21;100.00;93026.72;5071312;28;20044;-82
2021/06/20 00:10:08;;;;;;;2.42;1.13;;;;;;;15.17;100.00;93028.22;5071161;28;20255;-82
2021/06/20 00:12:35;;;;;;;2.97;1.40;;;;;;;15.11;100.00;93026.59;5071541;28;20048;-82
2021/06/20 00:15:05;;;;;;;2.58;1.30;;;;;;;15.01;100.00;93024.69;5071428;28;20060;-82
2021/06/20 00:17:32;;;;;;;2.80;1.20;;;;;;;15.03;100.00;93025.22;5071384;28;20106;-81
2021/06/20 00:19:59;;;;;;;3.40;1.30;;;;;;;15.03;100.00;93025.22;5071404;28;20396;-81
2021/06/20 00:22:26;;;;;;;1.92;1.25;;;;;;;14.99;100.00;93020.78;5071190;28;20044;-81
2021/06/20 00:24:53;;;;;;;2.90;1.52;;;;;;;14.94;100.00;93019.69;5071291;28;20407;-82
2021/06/20 00:27:19;;;;;;;2.83;1.17;;;;;;;14.91;100.00;93021.97;5070904;28;20048;-82
2021/06/20 00:29:46;;;;;;;1.95;1.10;;;;;;;14.87;100.00;93016.50;5070764;28;20056;-81
2021/06/20 00:32:14;;;;;;;2.63;1.17;;;;;;;14.88;100.00;93014.69;5070878;28;20048;-82
2021/06/20 00:34:41;;;;;;;1.95;0.80;;;;;;;14.76;100.00;93001.91;5071058;28;20054;-82
2021/06/20 00:37:08;;;;;;;2.03;1.08;;;;;;;14.80;100.00;93016.69;5070679;28;20048;-82
2021/06/20 00:39:35;;;;;;;2.75;1.45;;;;;;;14.74;100.00;93017.63;5071065;28;20048;-82
2021/06/20 00:42:02;;;;;;;2.45;1.50;;;;;;;14.69;100.00;93015.72;5070485;28;20606;-82
2021/06/20 00:44:29;;;;;;;2.70;1.40;;;;;;;14.65;100.00;93021.63;5070602;28;20653;-81
2021/06/20 00:46:56;;;;;;;3.47;1.75;;;;;;;14.62;100.00;93025.47;5070855;28;20385;-82
2021/06/20 00:49:24;;;;;;;2.55;1.45;;;;;;;14.62;100.00;93011.78;5070241;28;20056;-81
2021/06/20 00:51:51;;;;;;;1.35;0.88;;;;;;;14.60;100.00;93014.59;5070716;28;20105;-83
2021/06/20 00:54:17;;;;;;;3.13;1.80;;;;;;;14.59;100.00;93020.00;5070337;28;20057;-82
2021/06/20 00:56:44;;;;;;;3.22;1.20;;;;;;;14.58;100.00;93024.38;5070040;28;20048;-82
2021/06/20 00:59:12;;;;;;;2.47;0.85;;;;;;;14.53;100.00;93022.50;5069831;28;20048;-82
2021/06/20 01:01:39;;;;;;;2.90;1.20;;;;;;;14.46;100.00;93021.13;5070667;28;20044;-82
2021/06/20 01:04:06;;;;;;;2.63;1.20;;;;;;;14.41;100.00;93024.41;5070331;28;20053;-83
2021/06/20 01:06:34;;;;;;;4.10;1.70;;;;;;;14.41;100.00;93034.75;5070539;28;20424;-82
2021/06/20 01:09:01;;;;;;;2.45;1.30;;;;;;;14.36;100.00;93029.53;5070202;28;20098;-82
2021/06/20 01:11:28;;;;;;;2.40;1.40;;;;;;;14.35;100.00;93026.13;5070178;28;20051;-82
2021/06/20 01:13:55;;;;;;;4.35;1.40;;;;;;;14.31;100.00;93022.50;5070039;28;20523;-82
2021/06/20 01:16:22;;;;;;;2.00;1.40;;;;;;;14.22;100.00;93021.31;5069968;28;20059;-83
2021/06/20 01:18:48;;;;;;;3.35;1.80;;;;;;;14.23;100.00;93023.66;5069844;28;20053;-82
2021/06/20 01:21:15;;;;;;;2.63;1.30;;;;;;;14.23;100.00;93028.03;5073785;28;20442;-82
2021/06/20 01:23:43;;;;;;;2.85;1.00;;;;;;;14.18;100.00;93028.75;5072056;28;20053;-82
2021/06/20 01:26:10;;;;;;;2.35;1.20;;;;;;;14.18;100.00;93018.44;5070380;28;20098;-82
2021/06/20 01:28:48;;;;;;;1.85;1.13;;;;;;;14.19;100.00;93012.22;5069838;28;20048;-81
2021/06/20 01:31:15;;;;;;;2.95;1.45;;;;;;;14.02;100.00;92996.75;5069903;28;20053;-82
2021/06/20 01:33:42;;;;;;;1.83;1.02;;;;;;;14.13;100.00;93013.19;5069906;28;20424;-81
2021/06/20 01:36:10;;;;;;;3.58;1.33;;;;;;;14.15;100.00;93019.69;5069934;28;20102;-82
2021/06/20 01:38:37;;;;;;;2.35;1.13;;;;;;;14.02;100.00;93000.13;5069862;28;20049;-82
2021/06/20 01:41:07;;;;;;;1.80;0.88;;;;;;;13.97;100.00;92991.50;5069382;28;20411;-83
2021/06/20 01:43:33;;;;;;;1.05;0.65;;;;;;;14.09;100.00;93012.09;5069519;28;20048;-83
2021/06/20 01:46:00;;;;;;;1.80;1.17;;;;;;;13.99;100.00;93012.72;5069414;28;20049;-83
2021/06/20 01:48:27;;;;;;;2.47;1.50;;;;;;;13.99;100.00;93023.06;5069737;28;20561;-83
2021/06/20 01:50:54;;;;;;;2.63;1.20;;;;;;;13.97;100.00;93022.47;5069420;28;20562;-83
2021/06/20 01:53:21;;;;;;;15.18;1.55;;;;;;;13.94;100.00;93034.09;5069727;28;20435;-82
2021/06/20 01:55:48;;;;;;;3.00;1.33;;;;;;;13.77;100.00;93013.41;5069710;28;20052;-82
2021/06/20 01:58:19;;;;;;;2.10;1.20;;;;;;;13.79;100.00;93029.44;5069274;28;20531;-82
2021/06/20 02:00:48;;;;;;;3.10;1.48;;;;;;;13.75;100.00;93034.28;5069739;28;20071;-83
2021/06/20 02:03:17;;;;;;;1.65;0.75;;;;;;;13.68;100.00;93030.28;5069598;28;20071;-83
2021/06/20 02:05:47;;;;;;;2.35;1.58;;;;;;;13.54;100.00;93004.00;5069323;28;20109;-83
2021/06/20 02:08:18;;;;;;;2.05;1.08;;;;;;;13.55;100.00;93001.19;5069163;28;20533;-83
2021/06/20 02:10:45;;;;;;;1.65;0.90;;;;;;;13.67;100.00;93026.16;5068079;28;20496;-82
2021/06/20 02:13:12;;;;;;;1.15;0.77;;;;;;;13.64;100.00;93024.81;5069206;28;20045;-83
2021/06/20 02:15:40;;;;;;;1.30;0.80;;;;;;;13.56;100.00;93020.81;5069199;28;20521;-82
2021/06/20 02:18:07;;;;;;;1.90;0.80;;;;;;;13.49;100.00;93035.66;5069436;28;20045;-82
2021/06/20 02:20:34;;;;;;;1.40;0.88;;;;;;;13.46;100.00;93042.06;5069100;28;20044;-82
2021/06/20 02:23:01;;;;;;;2.53;1.13;;;;;;;13.46;100.00;93034.34;5069466;28;20464;-83
2021/06/20 02:25:28;;;;;;;1.58;0.90;;;;;;;13.41;100.00;93033.41;5069059;28;20644;-82
2021/06/20 02:27:55;;;;;;;1.30;0.77;;;;;;;13.23;100.00;93015.34;5068948;28;20052;-82
2021/06/20 02:30:23;;;;;;;2.13;1.20;;;;;;;13.33;100.00;93025.03;5069261;28;20056;-83
2021/06/20 02:32:52;;;;;;;1.77;0.82;;;;;;;13.31;100.00;93015.97;5069030;28;20443;-82
2021/06/20 02:35:20;;;;;;;1.80;1.27;;;;;;;13.25;100.00;93007.38;5068981;28;20056;-83
2021/06/20 02:37:48;;;;;;;4.40;1.00;;;;;;;13.31;100.00;93003.88;5069386;28;20110;-83
2021/06/20 02:40:16;;;;;;;2.13;1.13;;;;;;;13.35;100.00;93010.13;5069213;28;20044;-83
2021/06/20 02:42:43;;;;;;;3.13;1.00;;;;;;;13.33;100.00;93007.00;5068667;28;20056;-82
2021/06/20 02:45:12;;;;;;;3.03;0.95;;;;;;;13.36;100.00;93003.97;5069282;28;20241;-82
2021/06/20 02:47:39;;;;;;;1.85;0.82;;;;;;;13.28;100.00;93000.97;5069150;28;20433;-82
2021/06/20 02:50:09;;;;;;;2.75;0.90;;;;;;;13.33;100.00;93009.56;5068643;28;20055;-82
2021/06/20 02:52:36;;;;;;;1.88;1.00;;;;;;;13.25;100.00;93004.00;5068788;28;20480;-82
2021/06/20 02:55:04;;;;;;;4.07;2.92;;;;;;;13.33;100.00;93021.69;5068832;28;20397;-82
2021/06/20 02:57:32;;;;;;;2.03;0.90;;;;;;;13.33;100.00;93026.84;5063876;28;20048;-83
2021/06/20 03:00:01;;;;;;;4.20;1.30;;;;;;;13.35;100.00;93032.56;5046845;28;20119;-82
2021/06/20 03:02:28;;;;;;;1.58;0.82;;;;;;;13.34;100.00;93034.34;5047820;28;20588;-83
2021/06/20 03:04:56;;;;;;;4.55;1.83;;;;;;;13.34;100.00;93034.34;5048584;28;20141;-81
2021/06/20 03:07:24;;;;;;;3.13;1.20;;;;;;;13.30;100.00;93022.94;5048156;28;20055;-81
2021/06/20 03:09:51;;;;;;;7.53;1.45;;;;;;;13.27;100.00;93022.59;5048434;28;20045;-82
2021/06/20 03:12:19;;;;;;;2.63;0.90;;;;;;;13.29;100.00;93015.44;5048623;28;20051;-82
2021/06/20 03:14:46;;;;;;;1.85;0.90;;;;;;;13.23;100.00;93022.28;5048261;28;20052;-82
2021/06/20 03:17:14;;;;;;;3.53;1.08;;;;;;;13.18;100.00;93017.81;5048680;28;20056;-82
2021/06/20 03:19:42;;;;;;;3.05;1.45;;;;;;;13.01;100.00;92989.41;5048445;28;20438;-82
2021/06/20 03:22:09;;;;;;;1.48;0.82;;;;;;;13.09;100.00;93007.09;5050381;28;20053;-82
2021/06/20 03:24:39;;;;;;;2.80;1.20;;;;;;;13.09;100.00;93007.09;5052542;28;20056;-82
2021/06/20 03:27:07;;;;;;;7.78;1.40;;;;;;;13.14;100.00;93026.25;5052464;28;20041;-81
2021/06/20 03:29:33;;;;;;;3.00;1.20;;;;;;;13.16;100.00;93027.59;5052148;28;20056;-82
2021/06/20 03:32:01;;;;;;;3.80;1.63;;;;;;;13.19;100.00;93028.94;5052196;28;20443;-82
2021/06/20 03:34:28;;;;;;;2.22;1.35;;;;;;;13.17;100.00;93026.56;5052237;28;20042;-83
2021/06/20 03:36:55;;;;;;;1.98;0.95;;;;;;;13.21;100.00;93032.06;5052141;28;20102;-82
2021/06/20 03:39:22;;;;;;;3.03;1.48;;;;;;;13.21;100.00;93032.06;5052075;28;20389;-87
2021/06/20 03:41:50;;;;;;;2.20;1.05;;;;;;;13.18;100.00;93022.19;5052053;28;20471;-84
2021/06/20 03:44:17;;;;;;;1.80;1.10;;;;;;;13.31;100.00;93026.28;5052186;28;20049;-83
2021/06/20 03:46:43;;;;;;;5.13;1.55;;;;;;;13.31;100.00;93021.13;5051763;28;20099;-83
2021/06/20 03:49:10;;;;;;;2.22;1.20;;;;;;;13.26;100.00;93010.72;5052263;28;20048;-84
2021/06/20 03:51:37;;;;;;;2.28;1.10;;;;;;;13.28;100.00;93012.06;5052155;28;20053;-86
2021/06/20 03:54:04;;;;;;;2.28;1.00;;;;;;;13.24;100.00;93003.22;5051302;28;20059;-86
2021/06/20 03:56:31;;;;;;;1.92;0.90;;;;;;;13.43;100.00;93032.19;5051622;28;20057;-86
2021/06/20 03:59:00;;;;;;;3.97;1.75;;;;;;;13.49;100.00;93028.72;5066553;28;20094;-85
2021/06/20 04:01:27;;;;;;;5.78;1.23;;;;;;;13.53;100.00;93028.25;5071372;28;20090;-83
2021/06/20 04:03:54;;;;;;;2.83;1.58;;;;;;;13.51;100.00;93014.81;5071480;28;20051;-83
2021/06/20 04:06:20;;;;;;;2.78;1.20;;;;;;;13.56;100.00;93017.47;5071029;28;20052;-83
2021/06/20 04:08:47;;;;;;;4.53;1.98;;;;;;;13.68;100.00;93033.66;5071524;28;20408;-83
2021/06/20 04:11:14;;;;;;;7.45;3.20;;;;;;;13.70;100.00;93028.28;5071081;28;20416;-83
2021/06/20 04:13:41;;;;;;;2.38;1.27;;;;;;;13.74;100.00;93031.94;5070890;28;20062;-82
2021/06/20 04:16:09;;;;;;;3.42;2.00;;;;;;;13.84;100.00;93032.09;5071281;28;20040;-81
2021/06/20 04:18:36;;;;;;;2.25;1.17;;;;;;;13.88;100.00;93035.81;5071188;28;20054;-82
2021/06/20 04:21:03;;;;;;;3.20;1.20;;;;;;;13.98;100.00;93032.59;5064914;28;20462;-82
2021/06/20 04:23:30;;;;;;;2.80;1.38;;;;;;;14.06;100.00;93041.75;5061699;28;20049;-82
2021/06/20 04:25:57;;;;;;;2.53;1.60;;;;;;;14.12;100.00;93045.19;5071023;28;20040;-82
2021/06/20 04:28:24;;;;;;;2.75;1.40;;;;;;;14.16;100.00;93035.94;5064755;28;20439;-81
2021/06/20 04:30:56;;;;;;;5.07;2.08;;;;;;;14.30;100.00;93044.16;5051109;28;20078;-81
2021/06/20 04:33:24;;;;;;;3.78;1.48;;;;;;;14.33;100.00;93038.53;5049818;28;20045;-82
2021/06/20 04:35:52;;;;;;;3.65;2.58;;;;;;;14.40;100.00;93040.94;5051176;28;20052;-82
2021/06/20 04:38:20;;;;;;;3.45;2.15;;;;;;;14.35;100.00;93033.13;5067975;28;20047;-81
2021/06/20 04:40:47;;;;;;;6.07;2.83;;;;;;;14.52;100.00;93044.22;5070608;28;20575;-82
2021/06/20 04:43:26;;;;;;;8.10;3.45;;;;;;;14.61;100.00;93052.34;5070792;28;20044;-82
2021/06/20 04:45:53;;;;;;;3.80;2.30;;;;;;;14.67;100.00;93051.38;5070792;28;20052;-82
2021/06/20 04:48:20;;;;;;;5.57;2.38;;;;;;;14.74;100.00;93034.91;5070861;28;20048;-82
2021/06/20 04:50:49;;;;;;;5.43;2.97;;;;;;;14.92;100.00;93054.56;5070420;28;20056;-82
2021/06/20 04:53:16;;;;;;;5.95;2.33;;;;;;;15.01;100.00;93045.38;5070308;28;20052;-84
2021/06/20 04:55:43;;;;;;;3.35;1.95;;;;;;;15.10;100.00;93050.91;5050745;28;20140;-83
2021/06/20 04:58:10;;;;;;;3.30;1.90;;;;;;;15.17;100.00;93051.50;5050373;28;20135;-84
2021/06/20 05:00:37;;;;;;;3.95;2.30;;;;;;;15.14;100.00;93030.50;5050357;28;20493;-83
2021/06/20 05:03:04;;;;;;;6.40;1.92;;;;;;;15.27;100.00;93040.47;5050425;28;20076;-82
2021/06/20 05:05:31;;;;;;;3.70;2.28;;;;;;;15.39;100.00;93040.34;5050098;28;20958;-82
2021/06/20 05:08:00;;;;;;;3.75;1.83;;;;;;;15.51;100.00;93047.97;5050302;28;20044;-82
2021/06/20 05:10:27;;;;;;;5.88;2.20;;;;;;;15.72;100.00;93058.50;5050225;28;20044;-82
2021/06/20 05:12:56;;;;;;;5.65;2.38;;;;;;;15.67;100.00;93042.91;5050321;28;20045;-84
2021/06/20 05:15:22;;;;;;;5.43;1.60;;;;;;;15.73;100.00;93042.72;5064080;28;20075;-84
2021/06/20 05:17:49;;;;;;;3.70;1.90;;;;;;;15.99;100.00;93052.56;5079141;28;20048;-84
2021/06/20 05:20:16;;;;;;;5.28;2.05;;;;;;;16.05;100.00;93043.03;5079997;28;20049;-84
2021/06/20 05:22:43;;;;;;;7.30;2.47;;;;;;;16.21;100.00;93056.88;5069615;28;20048;-84
2021/06/20 05:25:12;;;;;;;5.63;2.63;;;;;;;16.32;100.00;93050.72;5069931;28;20049;-84
2021/06/20 05:27:39;;;;;;;6.65;1.83;;;;;;;16.46;100.00;93051.06;5069469;28;20044;-84
2021/06/20 05:30:08;;;;;;;9.25;3.38;;;;;;;16.46;100.00;93060.66;5067181;28;20053;-84
2021/06/20 05:32:35;;;;;;;7.13;2.83;;;;;;;16.63;100.00;93060.50;5069641;28;20045;-84
2021/06/20 05:35:01;;;;;;;7.05;2.95;;;;;;;16.71;100.00;93044.47;5069924;28;20545;-84
2021/06/20 05:37:28;;;;;;;6.05;3.00;;;;;;;17.05;100.00;93061.53;5069486;28;20506;-84
2021/06/20 05:39:55;;;;;;;7.60;3.50;;;;;;;17.17;100.00;93062.06;5069965;28;20072;-83
2021/06/20 05:42:23;;;;;;;11.60;2.95;;;;;;;17.47;100.00;93071.00;5069748;28;21075;-83
2021/06/20 05:44:50;;;;;;;7.45;3.65;;;;;;;17.60;100.00;93067.13;5069301;28;20049;-83
2021/06/20 05:47:17;;;;;;;9.65;3.72;;;;;;;17.63;100.00;93076.22;5069295;28;20048;-82
2021/06/20 05:49:44;;;;;;;8.35;4.03;;;;;;;17.46;100.00;93048.66;5069304;28;20415;-83
2021/06/20 05:52:10;;;;;;;5.78;3.40;;;;;;;17.77;100.00;93069.50;5069188;28;20044;-83
2021/06/20 05:54:37;;;;;;;5.47;3.00;;;;;;;18.00;100.00;93061.47;5069259;28;20503;-86
2021/06/20 05:57:04;;;;;;;5.07;2.47;;;;;;;18.36;100.00;93078.91;5069157;28;20086;-82
2021/06/20 05:59:33;;;;;;;11.10;3.63;;;;;;;18.70;100.00;93084.34;5069177;28;20404;-82
2021/06/20 06:01:59;;;;;;;8.48;5.40;;;;;;;18.79;100.00;93078.59;5069223;28;20044;-82
2021/06/20 06:04:26;;;;;;;7.32;4.05;;;;;;;18.71;100.00;93064.31;5069053;28;20048;-81
2021/06/20 06:06:55;;;;;;;11.35;3.53;;;;;;;19.08;100.00;93065.00;5069346;28;20401;-81
2021/06/20 06:09:21;;;;;;;7.55;3.28;;;;;;;19.30;100.00;93045.66;5069253;28;20052;-81
2021/06/20 06:11:50;;;;;;;4.53;3.03;;;;;;;19.44;97.95;93066.69;5068273;28;20052;-81
2021/06/20 06:14:17;;;;;;;4.78;2.50;;;;;;;19.71;98.41;93063.66;5067038;28;20076;-83
2021/06/20 06:16:46;;;;;;;5.05;2.33;;;;;;;20.06;98.62;93061.13;5049034;28;20045;-83
2021/06/20 06:19:12;;;;;;;3.17;2.10;;;;;;;20.44;95.51;93050.09;5048931;28;20053;-83
2021/06/20 06:21:39;;;;;;;3.15;1.50;;;;;;;20.49;93.91;93044.84;5049105;28;20448;-83
2021/06/20 06:24:07;;;;;;;5.38;2.50;;;;;;;20.70;93.22;93032.34;5049273;28;20105;-85
2021/06/20 06:26:33;;;;;;;3.65;1.10;;;;;;;21.08;90.94;93034.34;5049111;28;20091;-85
2021/06/20 06:29:00;;;;;;;2.45;1.15;;;;;;;21.42;90.67;93032.59;5062185;28;20055;-86
2021/06/20 06:31:27;;;;;;;1.80;1.00;;;;;;;21.57;90.37;93025.63;5068893;28;20067;-84
2021/06/20 06:33:55;;;;;;;2.15;1.15;;;;;;;21.96;87.68;93019.34;5069326;28;20057;-83
2021/06/20 06:36:22;;;;;;;2.47;1.30;;;;;;;22.35;85.92;93029.72;5068835;28;20052;-84
2021/06/20 06:38:49;;;;;;;2.15;1.35;;;;;;;22.64;84.44;93028.72;5069253;28;20041;-86
2021/06/20 06:41:19;;;;;;;1.92;0.80;;;;;;;22.88;81.55;93025.13;5068629;28;20047;-83
2021/06/20 06:43:45;;;;;;;2.13;1.00;;;;;;;22.82;80.57;93019.22;5068754;28;20567;-84
2021/06/20 06:46:12;;;;;;;3.05;1.33;;;;;;;23.11;80.41;93001.63;5069542;28;20044;-84
2021/06/20 06:48:39;;;;;;;2.08;1.08;;;;;;;23.43;79.04;93021.72;5068921;28;20048;-83
2021/06/20 06:51:08;;;;;;;2.38;0.85;;;;;;;23.74;78.27;93030.72;5046566;28;20041;-82
2021/06/20 06:53:34;;;;;;;1.83;1.00;;;;;;;24.03;77.11;93029.56;5046763;28;20545;-83
2021/06/20 06:56:01;;;;;;;4.20;1.05;;;;;;;24.20;76.20;93034.16;5059698;28;20480;-82
2021/06/20 06:58:28;;;;;;;2.97;1.02;;;;;;;24.41;74.59;93025.78;5072565;28;20059;-82
2021/06/20 07:00:55;;;;;;;2.55;0.77;;;;;;;24.39;73.60;93025.34;5072706;28;20049;-82
2021/06/20 07:03:22;;;;;;;1.45;0.70;;;;;;;23.88;76.23;93020.97;5072519;28;20060;-85
2021/06/20 07:05:49;;;;;;;1.80;0.82;;;;;;;24.16;74.00;93020.09;5072746;28;20127;-83
2021/06/20 07:08:17;;;;;;;1.27;0.55;;;;;;;23.65;74.72;93020.16;5072317;28;20048;-82
2021/06/20 07:10:43;;;;;;;0.98;0.47;;;;;;;23.11;75.68;93023.38;5072520;28;20052;-82
2021/06/20 07:13:10;;;;;;;1.13;0.60;;;;;;;22.85;75.21;93023.09;5069242;28;20094;-81
2021/06/20 07:15:37;;;;;;;1.33;0.55;;;;;;;23.32;76.16;93020.34;5066343;28;20419;-82
2021/06/20 07:18:04;;;;;;;0.93;0.40;;;;;;;23.65;72.76;93022.78;5072426;28;20056;-81
2021/06/20 07:20:31;;;;;;;2.28;0.95;;;;;;;24.05;71.93;93011.66;5060012;28;20087;-82
2021/06/20 07:22:58;;;;;;;1.23;0.65;;;;;;;23.88;72.56;93014.94;5052578;28;20393;-82
2021/06/20 07:25:26;;;;;;;1.38;0.57;;;;;;;23.44;75.26;93006.75;5052210;28;20389;-82
2021/06/20 07:27:53;;;;;;;0.70;0.38;;;;;;;24.01;73.63;92998.38;5064209;28;20036;-82
2021/06/20 07:30:21;;;;;;;1.17;0.60;;;;;;;24.41;70.11;93004.78;5072238;28;20084;-82
2021/06/20 07:32:49;;;;;;;0.93;0.50;;;;;;;23.98;68.54;93000.81;5071994;28;20049;-81
2021/06/20 07:35:16;;;;;;;1.58;0.88;;;;;;;24.54;72.05;92990.03;5072230;28;20082;-81
2021/06/20 07:37:43;;;;;;;1.33;0.63;;;;;;;24.92;67.38;92994.81;5071785;28;20105;-81
2021/06/20 07:40:13;;;;;;;1.98;0.55;;;;;;;24.91;67.63;92966.22;5071910;28;20048;-81
2021/06/20 07:42:44;;;;;;;1.23;0.50;;;;;;;24.60;67.50;92994.06;5072083;28;20411;-81
2021/06/20 07:45:12;;;;;;;0.82;0.43;;;;;;;24.87;67.55;92999.44;5072062;28;20056;-81
2021/06/20 07:47:39;;;;;;;0.80;0.40;;;;;;;25.20;69.23;92999.84;5072016;28;20044;-81
2021/06/20 07:50:08;;;;;;;0.77;0.30;;;;;;;25.67;67.35;92997.72;5071941;28;20427;-82
2021/06/20 07:52:35;;;;;;;0.60;0.30;;;;;;;24.43;66.56;92979.00;5071488;28;20470;-81
2021/06/20 07:55:02;;;;;;;0.60;0.30;;;;;;;25.04;64.15;92988.97;5071380;28;20064;-81
2021/06/20 07:57:29;;;;;;;0.68;0.32;;;;;;;25.59;66.06;92983.50;5068126;28;20053;-81
2021/06/20 07:59:57;;;;;;;1.35;0.50;;;;;;;26.31;65.83;92983.09;5051816;28;20064;-82
2021/06/20 08:02:24;;;;;;;1.20;0.63;;;;;;;26.44;61.45;92984.00;5051564;28;20106;-82
2021/06/20 08:04:53;;;;;;;1.08;0.43;;;;;;;25.87;63.71;92977.91;5051564;28;20045;-82
2021/06/20 08:07:20;;;;;;;0.93;0.35;;;;;;;26.25;59.95;92989.63;5051346;28;20052;-82
2021/06/20 08:09:47;;;;;;;1.40;0.68;;;;;;;26.48;61.74;92995.44;5051310;28;20056;-81
2021/06/20 08:12:14;;;;;;;2.70;1.05;;;;;;;26.90;63.60;92991.41;5052013;28;20044;-82
2021/06/20 08:14:48;;;;;;;1.67;0.70;;;;;;;26.90;63.76;92970.31;5057424;28;20503;-82
2021/06/20 08:17:16;;;;;;;1.08;0.47;;;;;;;27.10;63.48;92995.19;5071427;28;20049;-82
2021/06/20 08:19:47;;;;;;;1.50;0.70;;;;;;;27.22;63.78;92991.88;5071417;28;20054;-82
2021/06/20 08:22:16;;;;;;;1.13;0.50;;;;;;;26.70;62.32;92988.38;5071106;28;20044;-82
2021/06/20 08:24:43;;;;;;;0.57;0.38;;;;;;;26.25;59.99;92989.63;5070841;28;20056;-83
2021/06/20 08:27:11;;;;;;;0.90;0.47;;;;;;;25.63;61.80;92987.03;5071164;28;20066;-82
2021/06/20 08:29:38;;;;;;;1.38;0.65;;;;;;;25.12;65.26;92973.53;5070768;28;20500;-82
2021/06/20 08:32:06;;;;;;;1.55;0.60;;;;;;;25.22;63.44;92974.00;5070865;28;20458;-83
2021/06/20 08:34:34;;;;;;;0.98;0.47;;;;;;;25.45;63.61;92967.81;5071015;28;20484;-82
2021/06/20 08:37:11;;;;;;;1.17;0.70;;;;;;;25.82;63.41;92973.56;5070633;28;20059;-83
2021/06/20 08:39:47;;;;;;;0.70;0.43;;;;;;;26.28;64.02;92979.25;5070767;28;20090;-82
2021/06/20 08:42:19;;;;;;;1.08;0.40;;;;;;;26.28;64.76;92986.34;5071072;28;20049;-83
2021/06/20 08:44:45;;;;;;;1.15;0.50;;;;;;;26.74;64.19;92986.66;5071210;28;20049;-82
2021/06/20 08:47:13;;;;;;;1.00;0.70;;;;;;;26.90;62.24;92984.25;5070400;28;20055;-82
2021/06/20 08:50:19;;;;;;;2.63;0.57;;;;;;;25.96;60.44;92930.53;5070521;28;20055;-82
2021/06/20 08:52:46;;;;;;;0.70;0.30;;;;;;;26.79;61.92;92975.16;5070878;28;20051;-84
2021/06/20 08:55:14;;;;;;;0.90;0.50;;;;;;;26.35;57.92;92980.63;5059801;28;20565;-82
2021/06/20 08:57:43;;;;;;;1.60;0.60;;;;;;;26.43;61.45;92993.00;5051383;28;20057;-82
2021/06/20 09:00:18;;;;;;;1.23;0.47;;;;;;;26.28;61.56;92970.56;5053871;28;20052;-82
2021/06/20 09:02:56;;;;;;;0.80;0.50;;;;;;;26.83;59.72;92985.88;5055862;28;20049;-83
2021/06/20 09:06:14;;;;;;;0.88;0.40;;;;;;;27.35;59.16;92939.94;5051206;28;20049;-82
2021/06/20 09:08:45;;;;;;;1.05;0.38;;;;;;;27.00;55.05;92964.72;5017836;28;20049;-82
2021/06/20 09:11:23;;;;;;;0.68;0.30;;;;;;;26.42;60.22;92963.25;5046672;28;20060;-82
2021/06/20 09:13:50;;;;;;;1.75;0.65;;;;;;;26.14;60.68;92973.34;5050652;28;20171;-82
2021/06/20 09:16:21;;;;;;;1.38;0.50;;;;;;;26.42;57.60;92979.03;5070111;28;20182;-82
2021/06/20 09:18:52;;;;;;;1.20;0.55;;;;;;;26.50;59.68;92979.31;5070600;28;20117;-80
2021/06/20 09:21:23;;;;;;;1.48;0.40;;;;;;;27.26;57.65;92969.03;5070630;28;20059;-80
2021/06/20 09:23:52;;;;;;;0.93;0.40;;;;;;;27.40;57.23;92968.78;5070324;28;20047;-80
2021/06/20 09:26:32;;;;;;;0.60;0.25;;;;;;;26.98;55.55;92947.66;5070727;28;20055;-80
2021/06/20 09:28:59;;;;;;;0.70;0.32;;;;;;;26.75;56.77;92969.75;5056571;28;20059;-80
2021/06/20 09:31:25;;;;;;;0.82;0.60;;;;;;;26.47;60.48;92972.81;5068171;28;20052;-82
2021/06/20 09:33:59;;;;;;;0.73;0.30;;;;;;;26.63;58.86;92956.50;5068961;28;20052;-83
2021/06/20 09:36:29;;;;;;;0.80;0.30;;;;;;;26.84;54.43;92953.91;5070306;28;20135;-83
2021/06/20 09:38:57;;;;;;;0.73;0.38;;;;;;;25.95;57.64;92950.00;5070044;28;20488;-82
2021/06/20 09:41:24;;;;;;;1.27;0.38;;;;;;;25.34;57.33;92967.38;5070249;28;20082;-81
2021/06/20 09:43:52;;;;;;;0.93;0.50;;;;;;;25.06;58.46;92944.78;5070100;28;20049;-82
2021/06/20 09:46:19;;;;;;;0.77;0.32;;;;;;;25.98;60.76;92952.03;5070323;28;20049;-82
2021/06/20 09:48:47;;;;;;;0.55;0.30;;;;;;;26.24;56.91;92945.97;5070038;28;20055;-82
2021/06/20 09:51:16;;;;;;;2.17;0.60;;;;;;;27.12;58.22;92950.06;5070030;28;20571;-82
2021/06/20 09:53:44;;;;;;;0.82;0.40;;;;;;;27.84;57.17;92941.28;5069886;28;20048;-83
2021/06/20 09:56:14;;;;;;;1.20;0.50;;;;;;;28.30;55.20;92946.59;5069966;28;20523;-83
2021/06/20 09:58:44;;;;;;;0.95;0.50;;;;;;;27.32;53.58;92943.25;5070261;28;20056;-82
2021/06/20 10:01:12;;;;;;;1.35;0.63;;;;;;;27.24;57.88;92936.94;5070180;28;20495;-83
2021/06/20 10:03:39;;;;;;;0.77;0.45;;;;;;;27.13;56.88;92935.78;5069875;28;20044;-83
2021/06/20 10:06:07;;;;;;;0.77;0.28;;;;;;;25.99;57.82;92949.09;5069570;28;20135;-82
2021/06/20 10:08:34;;;;;;;1.70;0.60;;;;;;;25.69;59.95;92942.97;5069778;28;20052;-83
2021/06/20 10:11:01;;;;;;;0.90;0.45;;;;;;;25.05;61.34;92932.69;5069623;28;20052;-84
2021/06/20 10:13:29;;;;;;;0.80;0.30;;;;;;;24.74;62.82;92945.91;5069843;28;20056;-83
2021/06/20 10:15:58;;;;;;;0.85;0.40;;;;;;;24.82;63.88;92942.56;5055535;28;20091;-82
2021/06/20 10:18:26;;;;;;;1.92;1.00;;;;;;;24.74;63.25;92956.41;5049709;28;20056;-82
2021/06/20 10:20:58;;;;;;;1.40;0.50;;;;;;;24.52;63.05;92935.19;5049448;28;20049;-81
2021/06/20 10:23:25;;;;;;;1.27;0.60;;;;;;;24.74;62.51;92945.91;5049177;28;20080;-83
2021/06/20 10:26:05;;;;;;;0.75;0.45;;;;;;;24.47;63.78;92945.81;5049146;28;20049;-82
2021/06/20 10:28:34;;;;;;;1.08;0.52;;;;;;;24.23;65.55;92939.09;5058306;28;20041;-81
2021/06/20 10:31:07;;;;;;;1.30;0.68;;;;;;;24.08;66.12;92939.47;5069177;28;20045;-83
2021/06/20 10:33:34;;;;;;;1.20;0.45;;;;;;;23.79;66.46;92949.31;5073377;28;20098;-82
2021/06/20 10:36:03;;;;;;;0.60;0.30;;;;;;;23.98;66.43;92946.50;5073256;28;20052;-83
2021/06/20 10:38:37;;;;;;;0.98;0.57;;;;;;;24.32;67.47;92933.09;5073013;28;20504;-82
2021/06/20 10:41:04;;;;;;;0.85;0.40;;;;;;;24.51;67.31;92925.00;5054072;28;20052;-82
2021/06/20 10:43:35;;;;;;;2.35;0.45;;;;;;;24.39;63.77;92917.72;5052837;28;20512;-82
2021/06/20 10:46:13;;;;;;;0.93;0.55;;;;;;;24.58;63.54;92924.56;5053059;28;20045;-82
2021/06/20 10:48:39;;;;;;;1.13;0.50;;;;;;;25.31;64.91;92908.28;5052455;28;20056;-82
2021/06/20 10:51:17;;;;;;;1.10;0.40;;;;;;;26.00;62.08;92887.47;5052491;28;20053;-82
2021/06/20 10:53:44;;;;;;;1.02;0.50;;;;;;;26.47;61.91;92906.97;5049640;28;20055;-83
2021/06/20 10:56:20;;;;;;;0.90;0.40;;;;;;;26.93;59.26;92915.13;5054628;28;20045;-82
2021/06/20 10:58:59;;;;;;;1.55;0.52;;;;;;;26.14;58.62;92847.78;5072323;28;20102;-82
2021/06/20 11:01:41;;;;;;;0.50;0.30;;;;;;;26.57;58.76;92897.19;5072095;28;20071;-83
2021/06/20 11:04:07;;;;;;;1.55;0.52;;;;;;;26.00;58.96;92902.47;5072458;28;20406;-83
2021/06/20 11:06:34;;;;;;;0.93;0.47;;;;;;;25.09;59.49;92903.97;5072410;28;20422;-82
2021/06/20 11:09:04;;;;;;;1.30;0.60;;;;;;;25.04;61.51;92894.38;5072220;28;20511;-82
2021/06/20 11:11:33;;;;;;;2.92;0.50;;;;;;;25.26;61.20;92897.94;5072574;28;20075;-82
2021/06/20 11:14:07;;;;;;;1.77;0.65;;;;;;;25.24;62.53;92894.06;5072354;28;20044;-82
2021/06/20 11:16:38;;;;;;;3.15;0.70;;;;;;;25.25;62.29;92887.72;5067238;28;20572;-81
2021/06/20 11:19:15;;;;;;;2.03;0.40;;;;;;;25.39;61.70;92874.41;5071465;28;20044;-83
2021/06/20 11:21:53;;;;;;;2.05;0.60;;;;;;;25.02;60.83;92880.78;5072946;28;20487;-83
2021/06/20 11:24:23;;;;;;;1.80;0.75;;;;;;;25.44;63.14;92882.94;5054477;28;20126;-84
2021/06/20 11:26:54;;;;;;;2.10;0.70;;;;;;;25.72;62.62;92872.09;5071011;28;20048;-83
2021/06/20 11:29:26;;;;;;;2.13;0.63;;;;;;;25.78;59.63;92875.31;5071610;28;20492;-82
2021/06/20 11:31:55;;;;;;;0.80;0.40;;;;;;;26.27;58.75;92868.97;5069966;28;20045;-82
2021/06/20 11:34:22;;;;;;;0.75;0.32;;;;;;;26.46;58.71;92881.75;5073066;28;20067;-82